Maillen Ulmodrome

EBML · Namur, Wallonia, 比利时

罗盘
风向 的 风向 310° Maillen Ulmodrome 9/27
风: 9 kt, 3 beaufort

7 kt

6 kt
改变
0 ft 1.000 2.000 3.000 4.000 5.000
Cloud Cloud Cloud Cloud Cloud Cloud Cloud Cloud
OVC 200
METAR EBFS 031455Z AUTO 31009KT 0500 -RA OVC002/// 06/06 Q1001 RED

METAR Maillen Ulmodrome - EBML

Maillen Ulmodrome是,比利时中的小机场。 该机场位于纬度50,37507和经度4,92650。 该机场有一条跑道: 9/27. 本场的ICAO机场代码为EBML。 机场在Bruxelles FIR中。

该航空气象观测是针对Florennes Air Base在2024年3月3日 15:55, 当地时间进行的。

机场观察

风向为310°,速度为9 kt。

可见度为500 m。

有乌云密布在200 ft的高度。 破损或更高的上限为200 ft。

当前天气为光 雨。 温度为6 °C,阵风为1 °C。 露点为6 °C,相对湿度为100%。 海平面上的气压为1001 hPa (QNH)。

白天

今天,太阳从07:18升起,在18:25降落。 这适用于Maillen Ulmodrome,世界夏令时可能有所不同。 当地时间与世界标准时间之间的时差为+1 小时。 当前,没有夏令时有效。

公司介绍

在这个机场,你可以找到飞行俱乐部。 本场上唯一已知的公司是Loisir Club Mosan。

体会

到Vliegles.nl去找飞行课程,跳伞和其他飞行体验。 浏览页面,了解Maillen Ulmodrome附近所有可用的活动。 你也可以使用搜索功能来寻找你所在地附近的特定飞行课程、跳伞或其他飞行体验。

跑道

Id 标题 侧风 逆风 侧风 %
9/27 087°-267° 6 kt 7 kt 68 %

逆风成分最大的方向会被突出显示,并用于横风计算。 这并不一定意味着这个方向在使用。

乌云

200 ft OVC 乌云密布

温度 & 天气

天气 光 雨
温度 6 °C
露点 6 °C
相对湿度 100%
风寒 1 °C
Kp-index 1 (0-9)

白天

日出
07:19
中午
12:53
日落
18:26 (2:12)

小工具

你想在你的网站上有一个关于Maillen Ulmodrome的当前航空天气(METAR)的小部件吗?

显示HTML代码
?>